createdAt,value
2022-08-14T00:02:03.596Z,21.40
2022-08-14T00:04:44.557Z,21.50
2022-08-14T00:07:14.177Z,21.40
2022-08-14T00:10:02.024Z,21.00
2022-08-14T00:12:33.630Z,21.10
2022-08-14T00:15:15.161Z,21.50
2022-08-14T00:17:48.243Z,21.30
2022-08-14T00:20:30.591Z,21.40
2022-08-14T00:23:12.208Z,21.40
2022-08-14T00:25:53.713Z,21.50
2022-08-14T00:28:29.032Z,21.20
2022-08-14T00:31:00.132Z,21.30
2022-08-14T00:33:51.167Z,21.40
2022-08-14T00:36:35.523Z,21.50
2022-08-14T00:39:03.952Z,21.70
2022-08-14T00:41:33.882Z,21.50
2022-08-14T00:44:01.417Z,21.50
2022-08-14T00:46:32.578Z,21.40
2022-08-14T00:49:00.879Z,21.30
2022-08-14T00:51:37.678Z,21.10
2022-08-14T00:54:11.177Z,21.30
2022-08-14T00:56:49.869Z,21.10
2022-08-14T00:59:16.816Z,21.10
2022-08-14T01:01:45.627Z,21.40
2022-08-14T01:04:52.257Z,21.20
2022-08-14T01:07:07.560Z,21.20
2022-08-14T01:09:37.289Z,21.30
2022-08-14T01:12:06.273Z,21.40
2022-08-14T01:14:35.591Z,21.40
2022-08-14T01:17:03.498Z,21.40
2022-08-14T01:19:49.699Z,21.50
2022-08-14T01:22:18.899Z,21.50
2022-08-14T01:24:47.015Z,21.50
2022-08-14T01:27:18.646Z,21.30
2022-08-14T01:30:00.670Z,21.40
2022-08-14T01:32:35.592Z,21.20
2022-08-14T01:35:21.222Z,20.90
2022-08-14T01:37:56.959Z,21.00
2022-08-14T01:40:36.473Z,20.90
2022-08-14T01:43:14.532Z,21.00
2022-08-14T01:45:42.749Z,21.20
2022-08-14T01:48:16.208Z,21.40
2022-08-14T01:50:48.028Z,21.10
2022-08-14T01:53:17.794Z,21.30
2022-08-14T01:55:44.743Z,21.40
2022-08-14T01:58:20.347Z,21.40
2022-08-14T02:00:56.385Z,21.10
2022-08-14T02:03:29.975Z,21.30
2022-08-14T02:06:32.509Z,21.10
2022-08-14T02:08:53.375Z,20.90
2022-08-14T02:11:24.313Z,21.10
2022-08-14T02:14:07.130Z,21.00
2022-08-14T02:16:41.411Z,20.70
2022-08-14T02:19:11.905Z,20.60
2022-08-14T02:21:46.951Z,20.70
2022-08-14T02:24:40.129Z,20.80
2022-08-14T02:28:25.151Z,20.80
2022-08-14T02:30:00.455Z,20.80
2022-08-14T02:32:36.244Z,20.90
2022-08-14T02:35:10.265Z,20.70
2022-08-14T02:37:48.246Z,20.70
2022-08-14T02:40:32.278Z,20.70
2022-08-14T02:43:02.693Z,20.50
2022-08-14T02:45:37.989Z,20.60
2022-08-14T02:48:10.350Z,20.70
2022-08-14T02:50:57.633Z,20.80
2022-08-14T02:53:29.457Z,20.90
2022-08-14T02:56:02.561Z,21.10
2022-08-14T02:58:31.101Z,20.70
2022-08-14T03:01:01.592Z,20.70
2022-08-14T03:03:31.490Z,20.60
2022-08-14T03:06:00.321Z,20.50
2022-08-14T03:08:31.820Z,20.40
2022-08-14T03:11:07.707Z,20.60
2022-08-14T03:13:39.637Z,20.60
2022-08-14T03:16:20.362Z,20.80
2022-08-14T03:18:58.326Z,20.70
2022-08-14T03:21:27.376Z,20.80
2022-08-14T03:24:07.153Z,20.70
2022-08-14T03:26:46.072Z,20.60
2022-08-14T03:29:16.297Z,20.60
2022-08-14T03:31:43.566Z,20.70
2022-08-14T03:34:24.714Z,20.90
2022-08-14T03:37:38.706Z,20.10
2022-08-14T03:39:47.440Z,20.30
2022-08-14T03:42:19.515Z,20.30
2022-08-14T03:45:26.102Z,20.70
2022-08-14T03:47:55.840Z,20.50
2022-08-14T03:50:30.795Z,20.20
2022-08-14T03:53:03.043Z,20.70
2022-08-14T03:55:31.452Z,20.60
2022-08-14T03:58:00.282Z,20.60
2022-08-14T04:00:42.758Z,20.60
2022-08-14T04:03:15.223Z,20.90
2022-08-14T04:05:48.970Z,20.70
2022-08-14T04:08:29.558Z,20.50
2022-08-14T04:11:01.118Z,20.40
2022-08-14T04:13:34.279Z,20.20
2022-08-14T04:16:12.723Z,20.60
2022-08-14T04:18:42.750Z,20.60
2022-08-14T04:21:12.140Z,20.70
2022-08-14T04:23:39.884Z,20.50
2022-08-14T04:26:14.964Z,20.40
2022-08-14T04:29:09.242Z,20.40
2022-08-14T04:32:57.439Z,20.30
2022-08-14T04:34:29.824Z,20.70
2022-08-14T04:37:17.449Z,20.50
2022-08-14T04:40:08.688Z,20.20
2022-08-14T04:42:55.098Z,20.20
2022-08-14T04:45:23.758Z,20.40
2022-08-14T04:48:12.742Z,20.70
2022-08-14T04:50:53.970Z,20.50
2022-08-14T04:53:34.911Z,21.10
2022-08-14T04:56:05.885Z,21.30
2022-08-14T04:58:39.085Z,21.30
2022-08-14T05:01:12.802Z,20.90
2022-08-14T05:03:46.793Z,21.30
2022-08-14T05:06:38.776Z,21.30
2022-08-14T05:09:00.926Z,21.50
2022-08-14T05:11:28.134Z,21.50
2022-08-14T05:14:33.075Z,21.70
2022-08-14T05:16:44.167Z,21.90
2022-08-14T05:19:24.620Z,22.10
2022-08-14T05:22:17.821Z,22.10
2022-08-14T05:24:51.180Z,21.90
2022-08-14T05:27:22.282Z,21.80
2022-08-14T05:29:50.973Z,21.80
2022-08-14T05:32:17.866Z,22.00
2022-08-14T05:34:45.564Z,21.80
2022-08-14T05:37:15.466Z,21.90
2022-08-14T05:39:42.913Z,22.60
2022-08-14T05:42:22.014Z,22.50
2022-08-14T05:44:55.866Z,22.30
2022-08-14T05:47:23.968Z,22.30
2022-08-14T05:49:51.687Z,22.40
2022-08-14T05:52:34.222Z,22.60
2022-08-14T05:55:09.265Z,22.70
2022-08-14T05:57:47.456Z,23.40
2022-08-14T06:00:28.302Z,23.10
2022-08-14T06:02:57.343Z,22.70
2022-08-14T06:05:24.902Z,23.00
2022-08-14T06:07:58.106Z,23.20
2022-08-14T06:10:28.159Z,23.60
2022-08-14T06:12:57.891Z,23.80
2022-08-14T06:15:29.885Z,24.00
2022-08-14T06:17:59.018Z,24.20
2022-08-14T06:20:28.098Z,24.90
2022-08-14T06:22:56.445Z,24.90
2022-08-14T06:25:24.831Z,24.60
2022-08-14T06:27:52.731Z,24.70
2022-08-14T06:30:23.652Z,24.40
2022-08-14T06:32:57.620Z,24.10
2022-08-14T06:35:24.700Z,23.80
2022-08-14T06:37:56.685Z,25.00
2022-08-14T06:40:28.642Z,29.30
2022-08-14T06:43:04.233Z,32.70
2022-08-14T06:45:32.328Z,33.10
2022-08-14T06:48:01.150Z,33.40
2022-08-14T06:50:31.558Z,33.80
2022-08-14T06:53:01.138Z,34.90
2022-08-14T06:55:29.446Z,35.20
2022-08-14T06:57:57.623Z,35.40
2022-08-14T07:00:30.987Z,36.40
2022-08-14T07:03:19.329Z,36.50
2022-08-14T07:05:55.555Z,37.00
2022-08-14T07:08:26.582Z,37.60
2022-08-14T07:11:03.985Z,37.60
2022-08-14T07:13:31.113Z,37.60
2022-08-14T07:16:00.467Z,37.90
2022-08-14T07:18:31.140Z,37.80
2022-08-14T07:21:00.286Z,38.40
2022-08-14T07:23:27.865Z,38.20
2022-08-14T07:26:02.145Z,38.10
2022-08-14T07:28:42.946Z,38.10
2022-08-14T07:31:12.104Z,38.20
2022-08-14T07:33:42.049Z,37.80
2022-08-14T07:36:27.480Z,37.10
2022-08-14T07:39:02.759Z,36.60
2022-08-14T07:41:35.579Z,36.40
2022-08-14T07:44:32.251Z,35.80
2022-08-14T07:46:50.529Z,34.40
2022-08-14T07:49:19.329Z,31.90
2022-08-14T07:51:49.440Z,30.40
2022-08-14T07:54:23.224Z,29.90
2022-08-14T07:57:06.593Z,29.20
2022-08-14T07:59:43.602Z,29.10
2022-08-14T08:02:19.414Z,29.00
2022-08-14T08:04:59.184Z,29.30
2022-08-14T08:07:30.695Z,29.50
2022-08-14T08:10:01.138Z,29.40
2022-08-14T08:12:30.683Z,29.20
2022-08-14T08:15:02.810Z,29.30
2022-08-14T08:17:34.936Z,29.80
2022-08-14T08:20:06.792Z,29.70
2022-08-14T08:22:37.884Z,29.50
2022-08-14T08:25:13.854Z,29.70
2022-08-14T08:27:41.871Z,30.10
2022-08-14T08:30:12.874Z,30.00
2022-08-14T08:32:43.871Z,29.70
2022-08-14T08:35:17.974Z,29.60
2022-08-14T08:37:45.442Z,29.60
2022-08-14T08:40:42.508Z,29.40
2022-08-14T08:43:21.386Z,29.60
2022-08-14T08:46:06.468Z,30.10
2022-08-14T08:48:53.672Z,29.80
2022-08-14T08:51:44.215Z,30.20
2022-08-14T08:54:18.653Z,30.20
2022-08-14T08:56:49.916Z,30.20
2022-08-14T08:59:27.187Z,30.20
2022-08-14T09:02:10.459Z,30.10
2022-08-14T09:04:45.530Z,30.30
2022-08-14T09:07:26.833Z,30.20
2022-08-14T09:09:59.252Z,30.30
2022-08-14T09:12:36.075Z,29.80
2022-08-14T09:15:11.720Z,30.30
2022-08-14T09:17:41.513Z,30.70
2022-08-14T09:20:12.101Z,30.90
2022-08-14T09:22:47.726Z,31.20
2022-08-14T09:25:17.232Z,31.20
2022-08-14T09:27:47.388Z,30.90
2022-08-14T09:30:33.162Z,31.50
2022-08-14T09:33:12.406Z,31.30
2022-08-14T09:36:08.001Z,31.00
2022-08-14T09:38:37.588Z,30.70
2022-08-14T09:42:21.347Z,31.20
2022-08-14T09:45:09.187Z,31.20
2022-08-14T09:47:46.154Z,30.80
2022-08-14T09:50:21.264Z,31.00
2022-08-14T09:53:03.819Z,30.90
2022-08-14T09:55:42.336Z,30.70
2022-08-14T09:58:19.245Z,31.00
2022-08-14T10:01:00.519Z,31.10
2022-08-14T10:03:33.173Z,30.90
2022-08-14T10:06:12.046Z,31.20
2022-08-14T10:08:56.015Z,31.60
2022-08-14T10:11:35.975Z,31.90
2022-08-14T10:14:34.710Z,31.80
2022-08-14T10:17:05.216Z,32.10
2022-08-14T10:19:35.967Z,32.30
2022-08-14T10:23:13.328Z,32.50
2022-08-14T10:25:12.044Z,32.20
2022-08-14T10:27:38.977Z,32.00
2022-08-14T10:30:22.534Z,32.00
2022-08-14T10:32:55.653Z,32.00
2022-08-14T10:35:30.967Z,32.10
2022-08-14T10:38:01.290Z,32.60
2022-08-14T10:40:43.723Z,32.10
2022-08-14T10:43:26.018Z,32.30
2022-08-14T10:46:21.732Z,32.20
2022-08-14T10:48:57.789Z,32.10
2022-08-14T10:51:30.035Z,32.80
2022-08-14T10:54:01.955Z,32.80
2022-08-14T10:56:44.636Z,32.20
2022-08-14T10:59:11.683Z,32.70
2022-08-14T11:01:41.285Z,32.80
2022-08-14T11:04:25.373Z,33.10
2022-08-14T11:06:55.379Z,33.30
2022-08-14T11:09:23.461Z,33.00
2022-08-14T11:12:33.943Z,32.80
2022-08-14T11:14:59.273Z,33.10
2022-08-14T11:17:33.085Z,33.10
2022-08-14T11:20:01.984Z,33.10
2022-08-14T11:22:52.496Z,33.00
2022-08-14T11:25:23.748Z,32.80
2022-08-14T11:27:56.116Z,33.00
2022-08-14T11:30:50.781Z,33.30
2022-08-14T11:33:13.541Z,34.00
2022-08-14T11:35:48.567Z,33.60
2022-08-14T11:38:17.907Z,33.40
2022-08-14T11:40:47.099Z,33.40
2022-08-14T11:43:15.226Z,33.50
2022-08-14T11:45:48.683Z,33.70
2022-08-14T11:49:01.727Z,33.50
2022-08-14T11:51:13.578Z,33.50
2022-08-14T11:53:42.342Z,33.90
2022-08-14T11:56:10.949Z,34.20
2022-08-14T11:58:39.522Z,34.40
2022-08-14T12:01:09.777Z,34.60
2022-08-14T12:03:51.883Z,34.20
2022-08-14T12:06:28.926Z,34.10
2022-08-14T12:09:08.603Z,34.50
2022-08-14T12:11:44.154Z,34.40
2022-08-14T12:14:30.981Z,34.30
2022-08-14T12:17:04.300Z,33.80
2022-08-14T12:19:33.676Z,34.00
2022-08-14T12:22:03.092Z,33.60
2022-08-14T12:24:36.878Z,33.60
2022-08-14T12:27:07.223Z,33.30
2022-08-14T12:29:34.884Z,33.00
2022-08-14T12:32:08.952Z,33.10
2022-08-14T12:34:41.905Z,33.20
2022-08-14T12:37:12.280Z,32.90
2022-08-14T12:39:39.635Z,33.00
2022-08-14T12:42:07.904Z,33.70
2022-08-14T12:44:42.584Z,33.50
2022-08-14T12:47:17.115Z,33.50
2022-08-14T12:49:52.513Z,33.50
2022-08-14T12:52:41.444Z,33.70
2022-08-14T12:55:20.790Z,33.50
2022-08-14T12:57:53.481Z,33.20
2022-08-14T13:00:25.494Z,33.70
2022-08-14T13:02:55.372Z,33.80
2022-08-14T13:05:30.011Z,33.80
2022-08-14T13:07:59.333Z,33.90
2022-08-14T13:10:47.181Z,33.80
2022-08-14T13:13:17.534Z,33.90
2022-08-14T13:15:56.250Z,33.70
2022-08-14T13:18:28.110Z,33.90
2022-08-14T13:20:59.739Z,34.00
2022-08-14T13:23:33.469Z,33.90
2022-08-14T13:26:04.060Z,33.70
2022-08-14T13:28:34.554Z,33.40
2022-08-14T13:31:11.781Z,32.90
2022-08-14T13:33:40.752Z,32.40
2022-08-14T13:36:23.608Z,32.40
2022-08-14T13:38:53.622Z,32.50
2022-08-14T13:41:31.437Z,32.30
2022-08-14T13:44:01.534Z,32.30
2022-08-14T13:46:28.401Z,32.80
2022-08-14T13:48:57.647Z,33.20
2022-08-14T13:51:32.047Z,33.20
2022-08-14T13:54:10.161Z,32.90
2022-08-14T13:56:40.469Z,32.80
2022-08-14T13:59:08.704Z,33.00
2022-08-14T14:01:43.715Z,33.00
2022-08-14T14:04:19.735Z,33.20
2022-08-14T14:06:52.188Z,32.90
2022-08-14T14:09:27.084Z,32.80
2022-08-14T14:12:00.295Z,33.10
2022-08-14T14:14:45.123Z,33.20
2022-08-14T14:17:14.967Z,33.30
2022-08-14T14:19:46.569Z,33.70
2022-08-14T14:22:35.765Z,34.20
2022-08-14T14:25:06.055Z,34.30
2022-08-14T14:27:41.013Z,34.50
2022-08-14T14:30:24.476Z,34.60
2022-08-14T14:33:05.382Z,34.50
2022-08-14T14:35:39.830Z,33.80
2022-08-14T14:38:08.741Z,33.80
2022-08-14T14:40:54.328Z,33.40
2022-08-14T14:43:28.140Z,33.20
2022-08-14T14:45:55.609Z,33.30
2022-08-14T14:48:28.348Z,33.60
2022-08-14T14:50:59.393Z,33.70
2022-08-14T14:53:27.313Z,33.80
2022-08-14T14:56:49.527Z,33.30
2022-08-14T14:58:46.287Z,33.30
2022-08-14T15:01:15.740Z,33.10
2022-08-14T15:03:46.142Z,33.10
2022-08-14T15:06:13.187Z,33.20
2022-08-14T15:08:56.334Z,33.00
2022-08-14T15:11:26.285Z,32.90
2022-08-14T15:13:57.907Z,33.00
2022-08-14T15:16:24.985Z,32.60
2022-08-14T15:18:52.930Z,32.60
2022-08-14T15:21:20.141Z,32.60
2022-08-14T15:23:48.108Z,32.70
2022-08-14T15:26:23.798Z,32.80
2022-08-14T15:29:06.413Z,33.10
2022-08-14T15:31:37.029Z,32.80
2022-08-14T15:34:45.605Z,33.10
2022-08-14T15:36:58.745Z,33.00
2022-08-14T15:39:29.292Z,32.70
2022-08-14T15:42:03.433Z,32.40
2022-08-14T15:44:44.748Z,32.30
2022-08-14T15:47:27.959Z,32.20
2022-08-14T15:49:59.703Z,32.00
2022-08-14T15:52:34.350Z,32.10
2022-08-14T15:55:06.172Z,32.10
2022-08-14T15:57:34.003Z,31.90
2022-08-14T16:00:21.494Z,31.80
2022-08-14T16:03:09.622Z,31.70
2022-08-14T16:05:38.347Z,31.70
2022-08-14T16:08:27.391Z,31.70
2022-08-14T16:11:01.338Z,31.90
2022-08-14T16:13:41.398Z,32.30
2022-08-14T16:16:47.056Z,32.40
2022-08-14T16:19:07.529Z,32.30
2022-08-14T16:21:40.027Z,32.30
2022-08-14T16:24:27.065Z,32.10
2022-08-14T16:27:00.595Z,32.10
2022-08-14T16:29:30.123Z,32.10
2022-08-14T16:32:32.047Z,32.30
2022-08-14T16:34:53.367Z,32.20
2022-08-14T16:37:23.323Z,32.20
2022-08-14T16:39:59.399Z,32.10
2022-08-14T16:43:01.247Z,32.20
2022-08-14T16:45:18.400Z,32.00
2022-08-14T16:47:47.668Z,31.90
2022-08-14T16:50:40.715Z,31.90
2022-08-14T16:53:07.263Z,32.00
2022-08-14T16:55:35.337Z,31.90
2022-08-14T16:58:26.554Z,31.80
2022-08-14T17:01:24.479Z,31.70
2022-08-14T17:03:54.264Z,31.60
2022-08-14T17:06:42.919Z,31.40
2022-08-14T17:09:29.484Z,31.30
2022-08-14T17:12:07.358Z,31.20
2022-08-14T17:14:52.679Z,31.10
2022-08-14T17:17:22.823Z,31.00
2022-08-14T17:19:57.873Z,30.90
2022-08-14T17:22:48.550Z,30.80
2022-08-14T17:25:24.316Z,30.60
2022-08-14T17:28:51.661Z,30.50
2022-08-14T17:31:16.571Z,30.30
2022-08-14T17:33:44.503Z,30.10
2022-08-14T17:36:23.975Z,30.00
2022-08-14T17:39:11.806Z,29.90
2022-08-14T17:41:47.881Z,29.80
2022-08-14T17:44:34.081Z,29.70
2022-08-14T17:47:14.762Z,29.60
2022-08-14T17:49:51.940Z,29.50
2022-08-14T17:52:35.837Z,29.50
2022-08-14T17:55:12.610Z,29.40
2022-08-14T17:57:58.751Z,29.30
2022-08-14T18:00:26.337Z,29.30
2022-08-14T18:02:57.461Z,29.20
2022-08-14T18:06:09.687Z,29.10
2022-08-14T18:08:32.425Z,29.00
2022-08-14T18:11:02.489Z,28.90
2022-08-14T18:13:50.773Z,28.80
2022-08-14T18:16:20.125Z,28.70
2022-08-14T18:18:49.792Z,28.70
2022-08-14T18:21:41.152Z,28.70
2022-08-14T18:24:28.091Z,28.60
2022-08-14T18:27:23.233Z,28.50
2022-08-14T18:29:56.593Z,28.50
2022-08-14T18:32:27.669Z,28.40
2022-08-14T18:35:11.136Z,28.20
2022-08-14T18:37:42.064Z,27.80
2022-08-14T18:40:23.016Z,27.40
2022-08-14T18:43:03.682Z,27.20
2022-08-14T18:45:42.928Z,27.00
2022-08-14T18:48:33.340Z,26.90
2022-08-14T18:51:14.987Z,26.80
2022-08-14T18:53:59.914Z,26.80
2022-08-14T18:57:20.194Z,26.60
2022-08-14T18:59:47.778Z,26.60
2022-08-14T19:02:30.702Z,26.50
2022-08-14T19:05:02.285Z,26.40
2022-08-14T19:07:33.935Z,26.40
2022-08-14T19:10:05.851Z,26.30
2022-08-14T19:12:57.564Z,26.30
2022-08-14T19:15:36.896Z,26.30
2022-08-14T19:18:28.217Z,26.20
2022-08-14T19:20:58.608Z,26.00
2022-08-14T19:23:42.639Z,25.80
2022-08-14T19:26:34.731Z,25.90
2022-08-14T19:29:37.629Z,25.90
2022-08-14T19:32:44.672Z,25.90
2022-08-14T19:35:24.454Z,26.00
2022-08-14T19:37:54.957Z,25.90
2022-08-14T19:40:42.014Z,25.90
2022-08-14T19:43:10.613Z,25.70
2022-08-14T19:45:38.858Z,25.60
2022-08-14T19:48:15.574Z,25.40
2022-08-14T19:50:46.275Z,25.40
2022-08-14T19:53:16.964Z,25.30
2022-08-14T19:55:59.724Z,25.30
2022-08-14T19:58:55.375Z,25.30
2022-08-14T20:01:27.146Z,25.30
2022-08-14T20:04:08.241Z,25.30
2022-08-14T20:06:55.204Z,25.50
2022-08-14T20:11:08.490Z,25.40
2022-08-14T20:12:28.842Z,25.30
2022-08-14T20:15:15.579Z,25.30
2022-08-14T20:17:52.507Z,25.30
2022-08-14T20:20:31.656Z,25.30
2022-08-14T20:23:10.813Z,25.30
2022-08-14T20:25:45.470Z,25.30
2022-08-14T20:28:31.922Z,25.30
2022-08-14T20:31:15.843Z,25.30
2022-08-14T20:34:36.131Z,25.50
2022-08-14T20:37:11.638Z,25.50
2022-08-14T20:39:40.430Z,25.50
2022-08-14T20:42:31.859Z,25.50
2022-08-14T20:45:24.856Z,25.50
2022-08-14T20:48:07.166Z,25.50
2022-08-14T20:50:35.132Z,25.60
2022-08-14T20:53:24.281Z,25.50
2022-08-14T20:55:53.568Z,25.50
2022-08-14T20:58:44.042Z,25.50
2022-08-14T21:01:18.614Z,25.40
2022-08-14T21:03:57.055Z,25.40
2022-08-14T21:06:27.974Z,25.50
2022-08-14T21:09:01.969Z,25.30
2022-08-14T21:11:30.209Z,25.30
2022-08-14T21:14:20.459Z,25.50
2022-08-14T21:16:58.358Z,25.50
2022-08-14T21:19:26.845Z,25.60
2022-08-14T21:21:56.092Z,25.60
2022-08-14T21:24:47.258Z,25.60
2022-08-14T21:27:20.457Z,25.50
2022-08-14T21:29:55.202Z,25.40
2022-08-14T21:32:50.012Z,25.50
2022-08-14T21:35:24.675Z,25.40
2022-08-14T21:37:54.191Z,25.30
2022-08-14T21:40:40.736Z,25.30
2022-08-14T21:43:18.009Z,25.30
2022-08-14T21:45:53.006Z,25.40
2022-08-14T21:48:21.401Z,25.30
2022-08-14T21:51:01.746Z,25.20
2022-08-14T21:53:59.210Z,25.20
2022-08-14T21:56:39.048Z,25.10
2022-08-14T21:59:17.736Z,25.10
2022-08-14T22:02:00.097Z,25.10
2022-08-14T22:04:34.449Z,24.90
2022-08-14T22:07:08.158Z,24.90
2022-08-14T22:09:36.568Z,24.90
2022-08-14T22:12:07.276Z,24.90
2022-08-14T22:14:43.518Z,24.90
2022-08-14T22:17:16.227Z,24.70
2022-08-14T22:19:54.347Z,24.60
2022-08-14T22:22:24.060Z,24.40
2022-08-14T22:24:59.740Z,24.40
2022-08-14T22:27:31.203Z,24.40
2022-08-14T22:30:01.000Z,24.30
2022-08-14T22:32:35.383Z,24.30
2022-08-14T22:35:16.685Z,24.20
2022-08-14T22:37:44.965Z,24.10
2022-08-14T22:40:56.862Z,24.10
2022-08-14T22:43:08.365Z,24.00
2022-08-14T22:45:37.763Z,24.00
2022-08-14T22:48:10.846Z,23.90
2022-08-14T22:50:48.895Z,23.80
2022-08-14T22:53:21.113Z,23.70
2022-08-14T22:55:52.121Z,23.90
2022-08-14T22:58:31.370Z,23.90
2022-08-14T23:01:07.649Z,24.00
2022-08-14T23:03:39.532Z,23.90
2022-08-14T23:07:03.126Z,23.80
2022-08-14T23:09:34.541Z,23.80
2022-08-14T23:11:46.830Z,23.80
2022-08-14T23:14:15.415Z,23.90
2022-08-14T23:16:57.340Z,23.70
2022-08-14T23:19:26.781Z,23.80
2022-08-14T23:22:01.836Z,23.80
2022-08-14T23:24:28.890Z,23.80
2022-08-14T23:26:56.228Z,23.70
2022-08-14T23:29:24.396Z,23.80
2022-08-14T23:31:52.763Z,23.70
2022-08-14T23:34:22.225Z,23.60
2022-08-14T23:36:56.212Z,23.50
2022-08-14T23:39:29.619Z,23.60
2022-08-14T23:42:04.316Z,23.60
2022-08-14T23:44:35.386Z,23.60
2022-08-14T23:47:12.022Z,23.60
2022-08-14T23:50:01.400Z,23.40
2022-08-14T23:52:57.514Z,23.50
2022-08-14T23:55:29.101Z,23.30
2022-08-14T23:57:57.587Z,23.30
